CheckWX is a tool to help pilots better visualize weather data.  It is not intended as a substitute for an official pre-flight weather briefing.

01:08:51 UTC

ENQC METAR
Troll C Platform Heliport
Norway
Current

19 mins ago

ENQC 190050Z AUTO 16015KT 9999NDV NCD 09/05 Q1036 W///S3
Observed
Apr-19 @ 00:50 UTC
Wind
  • 160° at 15 KTS
Visibility
Cloud Levels
  • Clear skies
Temperature
C / 48°F
Dewpoint
C / 41°F
Humidity
76%
Altimeter
30.59" Hg
Pressure
1035.91 hPa
Previous

49 mins ago

ENQC 190020Z AUTO 17017KT 9999NDV NCD 09/04 Q1036 W///S3
Observed
Apr-19 @ 00:20 UTC
Wind
  • 170° at 17 KTS
Visibility
Cloud Levels
  • Clear skies
Temperature
C / 48°F
Dewpoint
C / 39°F
Humidity
71%
Altimeter
30.59" Hg
Pressure
1035.91 hPa
Previous

1 hour ago

ENQC 182350Z AUTO 16017KT 9999NDV NCD 09/04 Q1036 W///S3
Observed
Apr-18 @ 23:50 UTC
Wind
  • 160° at 17 KTS
Visibility
Cloud Levels
  • Clear skies
Temperature
C / 48°F
Dewpoint
C / 39°F
Humidity
71%
Altimeter
30.59" Hg
Pressure
1035.91 hPa